createdAt,value
2023-04-04T07:42:23.889Z,4.70
2023-04-04T07:44:55.400Z,4.18
2023-04-04T07:47:23.618Z,5.10
2023-04-04T07:49:51.733Z,7.60
2023-04-04T07:52:20.000Z,5.37
2023-04-04T07:54:48.125Z,6.07
2023-04-04T07:57:15.984Z,5.20
2023-04-04T07:59:44.953Z,4.37
2023-04-04T08:02:12.812Z,4.20
2023-04-04T08:04:40.950Z,3.90
2023-04-04T08:07:08.766Z,5.60
2023-04-04T08:09:36.814Z,5.68
2023-04-04T08:12:06.829Z,4.05
2023-04-04T08:14:34.656Z,4.72
2023-04-04T08:17:02.591Z,4.93
2023-04-04T08:19:31.023Z,3.97
2023-04-04T08:21:58.865Z,6.12
2023-04-04T08:24:28.113Z,4.37
2023-04-04T08:27:04.489Z,3.55
2023-04-04T08:29:34.869Z,6.12
2023-04-04T08:32:03.084Z,4.65
2023-04-04T08:34:31.031Z,3.90
2023-04-04T08:36:58.902Z,5.00
2023-04-04T08:39:27.700Z,4.25
2023-04-04T08:42:06.206Z,3.35
2023-04-04T08:44:35.935Z,3.62
2023-04-04T08:47:05.786Z,3.03
2023-04-04T08:49:41.631Z,3.92
2023-04-04T08:52:15.473Z,4.60
2023-04-04T08:54:45.091Z,6.40
2023-04-04T08:57:12.939Z,7.97
2023-04-04T08:59:41.022Z,3.37
2023-04-04T09:02:09.342Z,4.15
2023-04-04T09:04:39.820Z,5.30
2023-04-04T09:07:08.125Z,3.55
2023-04-04T09:09:39.125Z,4.37
2023-04-04T09:12:08.287Z,3.87
2023-04-04T09:14:39.168Z,5.10
2023-04-04T09:17:08.886Z,4.95
2023-04-04T09:19:40.091Z,5.20
2023-04-04T09:22:09.593Z,5.55
2023-04-04T09:24:42.282Z,4.22
2023-04-04T09:27:11.946Z,6.22
2023-04-04T09:29:41.627Z,4.12
2023-04-04T09:32:10.537Z,5.55
2023-04-04T09:34:38.441Z,3.55
2023-04-04T09:37:06.975Z,2.97
2023-04-04T09:39:35.889Z,4.20
2023-04-04T09:42:04.015Z,3.55
2023-04-04T09:44:34.366Z,3.92
2023-04-04T09:50:03.197Z,6.97
2023-04-04T09:52:37.261Z,5.40
2023-04-04T09:55:06.943Z,4.05
2023-04-04T09:57:38.394Z,3.28
2023-04-04T10:00:11.523Z,5.82
2023-04-04T10:02:47.766Z,2.97
2023-04-04T10:05:17.414Z,6.55
2023-04-04T10:07:47.508Z,6.57
2023-04-04T10:10:15.816Z,6.50
2023-04-04T10:12:48.440Z,7.57
2023-04-04T10:15:17.480Z,5.53
2023-04-04T10:17:48.441Z,7.57
2023-04-04T10:20:16.616Z,7.55
2023-04-04T10:22:46.064Z,9.57
2023-04-04T10:25:14.608Z,6.95
2023-04-04T10:27:42.399Z,9.02
2023-04-04T10:30:10.770Z,7.97
2023-04-04T10:33:07.086Z,10.27
2023-04-04T10:35:37.439Z,9.60
2023-04-04T10:38:07.310Z,9.50
2023-04-04T10:40:39.293Z,7.72
2023-04-04T10:43:08.698Z,9.02
2023-04-04T10:45:42.721Z,12.75
2023-04-04T10:48:12.509Z,8.88
2023-04-04T10:50:40.963Z,10.30
2023-04-04T10:53:10.954Z,14.15
2023-04-04T10:55:40.966Z,12.85
2023-04-04T10:58:09.272Z,6.80
2023-04-04T11:00:55.503Z,14.23
2023-04-04T11:03:25.841Z,17.35
2023-04-04T11:06:00.668Z,16.85
2023-04-04T11:08:30.781Z,11.18
2023-04-04T11:10:59.447Z,7.80
2023-04-04T11:13:35.621Z,6.90
2023-04-04T11:16:14.310Z,6.85
2023-04-04T11:18:47.334Z,8.10
2023-04-04T11:21:17.062Z,8.27
2023-04-04T11:23:48.065Z,9.90
2023-04-04T11:26:33.800Z,8.52
2023-04-04T11:29:09.972Z,6.35
2023-04-04T11:31:44.131Z,9.25
2023-04-04T11:34:31.891Z,5.78
2023-04-04T11:37:02.223Z,6.53
2023-04-04T11:39:31.842Z,5.97
2023-04-04T11:42:10.992Z,6.97
2023-04-04T11:45:05.093Z,6.97
2023-04-04T11:47:33.298Z,4.90
2023-04-04T11:50:02.651Z,4.75
2023-04-04T11:52:40.873Z,7.37
2023-04-04T11:55:22.093Z,17.70
2023-04-04T11:57:51.659Z,12.10
2023-04-04T12:00:37.414Z,7.32
2023-04-04T12:03:13.105Z,6.05
2023-04-04T12:05:43.693Z,5.90
2023-04-04T12:08:13.322Z,6.12
2023-04-04T12:10:41.543Z,7.78
2023-04-04T12:13:10.984Z,6.70
2023-04-04T12:15:39.498Z,7.15
2023-04-04T12:18:08.979Z,6.12
2023-04-04T12:20:41.478Z,6.93
2023-04-04T12:23:10.563Z,5.35
2023-04-04T12:25:40.505Z,6.40
2023-04-04T12:28:08.989Z,7.72
2023-04-04T12:30:40.477Z,6.10
2023-04-04T12:33:08.296Z,4.78
2023-04-04T12:35:36.523Z,3.75
2023-04-04T12:38:08.566Z,7.50
2023-04-04T12:40:38.714Z,7.37
2023-04-04T12:43:08.391Z,6.60
2023-04-04T12:45:44.116Z,5.32
2023-04-04T12:48:15.292Z,6.03
2023-04-04T12:50:57.097Z,8.80
2023-04-04T12:56:15.909Z,5.93
2023-04-04T12:58:48.658Z,7.30
2023-04-04T13:04:05.167Z,5.20
2023-04-04T13:06:33.550Z,5.03
2023-04-04T13:09:01.534Z,5.32
2023-04-04T13:12:05.461Z,8.75
2023-04-04T13:14:58.758Z,6.07
2023-04-04T13:17:39.303Z,6.15
2023-04-04T13:20:07.695Z,8.75
2023-04-04T13:22:39.758Z,4.70
2023-04-04T13:25:09.559Z,6.00
2023-04-04T13:27:38.570Z,7.37
2023-04-04T13:30:09.368Z,5.03
2023-04-04T13:35:07.785Z,5.75
2023-04-04T13:37:35.573Z,4.47
2023-04-04T13:40:03.899Z,4.50
2023-04-04T13:42:32.070Z,6.60
2023-04-04T13:44:59.799Z,7.40
2023-04-04T13:47:28.950Z,6.32
2023-04-04T13:49:56.849Z,5.18
2023-04-04T13:52:24.937Z,8.93
2023-04-04T13:54:53.167Z,6.95
2023-04-04T13:57:21.155Z,7.90
2023-04-04T13:59:49.407Z,4.82
2023-04-04T14:02:17.613Z,7.68
2023-04-04T14:04:45.836Z,3.95
2023-04-04T14:07:13.702Z,7.90
2023-04-04T14:09:41.912Z,7.32
2023-04-04T14:12:10.093Z,8.35
2023-04-04T14:14:38.305Z,5.68
2023-04-04T14:17:06.085Z,5.25
2023-04-04T14:19:34.220Z,5.75
2023-04-04T14:22:02.517Z,8.60
2023-04-04T14:24:30.303Z,7.20
2023-04-04T14:26:58.494Z,9.20
2023-04-04T14:29:26.864Z,12.80
2023-04-04T14:31:56.556Z,12.18
2023-04-04T14:34:27.046Z,15.70
2023-04-04T14:36:54.850Z,148.75
2023-04-04T14:39:22.596Z,34.67
2023-04-04T14:41:50.695Z,10.18
2023-04-04T14:44:18.872Z,10.20
2023-04-04T14:46:46.882Z,8.50
2023-04-04T14:49:15.061Z,9.05
2023-04-04T14:51:42.919Z,13.68
2023-04-04T14:54:11.043Z,11.45
2023-04-04T14:56:39.281Z,10.00
2023-04-04T14:59:08.350Z,10.68
2023-04-04T15:01:36.903Z,9.35
2023-04-04T15:04:06.817Z,8.57
2023-04-04T15:06:39.073Z,16.58
2023-04-04T15:09:08.363Z,9.55
2023-04-04T15:11:36.425Z,16.00
2023-04-04T15:14:04.809Z,47.85
2023-04-04T15:16:34.471Z,22.27
2023-04-04T15:19:02.407Z,13.98
2023-04-04T15:21:30.228Z,21.85
2023-04-04T15:23:58.378Z,18.40
2023-04-04T15:26:26.299Z,8.93
2023-04-04T15:28:54.360Z,7.82
2023-04-04T15:31:22.698Z,11.70
2023-04-04T15:33:50.660Z,9.77
2023-04-04T15:36:18.549Z,10.40
2023-04-04T15:38:46.825Z,13.35
2023-04-04T15:41:14.686Z,13.30
2023-04-04T15:43:42.724Z,11.40
2023-04-04T15:46:11.162Z,9.32
2023-04-04T15:48:39.152Z,9.07
2023-04-04T15:51:06.992Z,16.70
2023-04-04T15:53:35.168Z,10.30
2023-04-04T15:56:02.983Z,14.20
2023-04-04T15:58:30.852Z,13.13
2023-04-04T16:00:59.116Z,13.25
2023-04-04T16:03:27.417Z,14.45
2023-04-04T16:05:55.235Z,22.20
2023-04-04T16:08:22.976Z,26.33
2023-04-04T16:10:51.333Z,23.35
2023-04-04T16:13:19.121Z,19.65
2023-04-04T16:15:46.966Z,16.62
2023-04-04T16:18:15.335Z,18.58
2023-04-04T16:20:43.046Z,17.37
2023-04-04T16:23:10.853Z,13.05
2023-04-04T16:25:38.923Z,15.00
2023-04-04T16:28:06.689Z,10.02
2023-04-04T16:30:34.541Z,15.07
2023-04-04T16:33:02.718Z,9.15
2023-04-04T16:35:32.261Z,9.95
2023-04-04T16:38:00.116Z,8.85
2023-04-04T16:40:28.302Z,7.25
2023-04-04T16:42:56.144Z,10.82
2023-04-04T16:45:23.985Z,10.98
2023-04-04T16:47:52.353Z,10.85
2023-04-04T16:50:20.041Z,7.87
2023-04-04T16:52:47.855Z,7.15
2023-04-04T16:55:16.768Z,8.77
2023-04-04T16:57:44.927Z,11.75
2023-04-04T17:00:25.350Z,10.80
2023-04-04T17:02:53.494Z,8.82
2023-04-04T17:05:21.919Z,11.32
2023-04-04T17:07:49.746Z,10.13
2023-04-04T17:10:19.526Z,9.00
2023-04-04T17:12:47.528Z,9.80
2023-04-04T17:15:17.694Z,12.48
2023-04-04T17:17:46.409Z,11.65
2023-04-04T17:20:18.404Z,18.17
2023-04-04T17:22:47.636Z,19.10
2023-04-04T17:25:15.473Z,15.10
2023-04-04T17:27:43.308Z,23.85
2023-04-04T17:30:12.663Z,18.58
2023-04-04T17:32:40.631Z,11.60
2023-04-04T17:35:10.201Z,19.45
2023-04-04T17:37:38.480Z,16.23
2023-04-04T17:40:06.931Z,18.33
2023-04-04T17:42:34.718Z,24.40
2023-04-04T17:45:02.892Z,31.20
2023-04-04T17:47:31.440Z,31.23
2023-04-04T17:49:59.512Z,55.38
2023-04-04T17:52:27.944Z,54.72
2023-04-04T17:54:56.096Z,70.05
2023-04-04T17:57:23.729Z,38.90
2023-04-04T17:59:52.224Z,60.97
2023-04-04T18:02:20.090Z,43.45
2023-04-04T18:04:48.453Z,56.45
2023-04-04T18:07:17.187Z,40.45
2023-04-04T18:09:45.971Z,25.90
2023-04-04T18:12:14.350Z,35.58
2023-04-04T18:14:42.384Z,50.83
2023-04-04T18:17:11.160Z,41.80
2023-04-04T18:19:40.246Z,36.92
2023-04-04T18:22:08.757Z,37.55
2023-04-04T18:24:36.941Z,35.50
2023-04-04T18:27:05.208Z,42.83
2023-04-04T18:29:33.096Z,25.85
2023-04-04T18:32:02.956Z,31.85
2023-04-04T18:34:31.399Z,31.17
2023-04-04T18:36:59.061Z,56.83
2023-04-04T18:39:27.904Z,52.47
2023-04-04T18:41:56.844Z,40.90
2023-04-04T18:44:24.712Z,40.63
2023-04-04T18:46:52.572Z,30.20
2023-04-04T18:49:20.824Z,32.08
2023-04-04T18:51:48.622Z,25.15
2023-04-04T18:54:16.692Z,26.33
2023-04-04T18:56:44.881Z,29.20
2023-04-04T18:59:12.733Z,25.08
2023-04-04T19:01:40.819Z,24.55
2023-04-04T19:04:09.057Z,28.83
2023-04-04T19:06:37.787Z,27.80
2023-04-04T19:09:06.131Z,27.55
2023-04-04T19:11:34.444Z,33.15
2023-04-04T19:14:02.178Z,25.23
2023-04-04T19:16:30.131Z,23.73
2023-04-04T19:18:58.287Z,13.38
2023-04-04T19:21:26.493Z,23.33
2023-04-04T19:23:54.392Z,19.62
2023-04-04T19:26:22.690Z,37.35
2023-04-04T19:28:51.025Z,31.35
2023-04-04T19:31:22.234Z,29.40
2023-04-04T19:33:51.764Z,24.67
2023-04-04T19:36:20.177Z,24.37
2023-04-04T19:38:52.240Z,22.20
2023-04-04T19:41:22.577Z,22.37
2023-04-04T19:43:50.953Z,16.75
2023-04-04T19:46:29.890Z,22.40
2023-04-04T19:49:00.408Z,18.90
2023-04-04T19:51:28.268Z,14.18
2023-04-04T19:53:57.511Z,18.65
2023-04-04T19:56:27.859Z,31.20
2023-04-04T19:58:59.202Z,17.35
2023-04-04T20:01:29.706Z,16.90
2023-04-04T20:04:04.248Z,14.40
2023-04-04T20:06:32.339Z,13.52
2023-04-04T20:09:03.031Z,21.05
2023-04-04T20:11:36.783Z,20.55
2023-04-04T20:14:09.591Z,21.05
2023-04-04T20:16:37.939Z,22.30
2023-04-04T20:19:09.091Z,26.23
2023-04-04T20:21:37.276Z,21.27
2023-04-04T20:24:08.710Z,13.27
2023-04-04T20:26:40.773Z,13.75
2023-04-04T20:29:12.924Z,13.98
2023-04-04T20:31:46.436Z,14.73
2023-04-04T20:34:46.990Z,17.42
2023-04-04T20:37:23.049Z,17.48
2023-04-04T20:39:57.490Z,14.77
2023-04-04T20:42:31.071Z,17.25
2023-04-04T20:45:13.741Z,18.77
2023-04-04T20:47:57.439Z,13.35
2023-04-04T20:50:27.373Z,15.88
2023-04-04T20:53:01.073Z,11.20
2023-04-04T20:55:31.538Z,17.35
2023-04-04T20:58:21.339Z,17.85
2023-04-04T21:00:49.042Z,18.90
2023-04-04T21:03:26.293Z,15.80
2023-04-04T21:06:22.455Z,21.25
2023-04-04T21:08:51.670Z,23.83
2023-04-04T21:11:32.690Z,18.90
2023-04-04T21:14:00.880Z,21.42
2023-04-04T21:16:29.773Z,31.33
2023-04-04T21:19:00.102Z,32.45
2023-04-04T21:21:30.865Z,27.13
2023-04-04T21:24:00.615Z,29.60
2023-04-04T21:26:32.143Z,33.00
2023-04-04T21:29:03.321Z,31.12
2023-04-04T21:31:40.182Z,30.85
2023-04-04T21:34:20.238Z,25.70
2023-04-04T21:36:49.958Z,30.40
2023-04-04T21:39:23.902Z,27.58
2023-04-04T21:41:54.192Z,35.53
2023-04-04T21:44:23.933Z,33.38
2023-04-04T21:46:54.676Z,33.63
2023-04-04T21:49:23.334Z,32.65
2023-04-04T21:51:51.621Z,30.85
2023-04-04T21:54:19.917Z,32.53
2023-04-04T21:56:47.790Z,26.17
2023-04-04T21:59:15.555Z,24.65
2023-04-04T22:01:43.913Z,34.00
2023-04-04T22:04:12.196Z,25.55
2023-04-04T22:06:40.044Z,20.02
2023-04-04T22:09:07.918Z,32.30
2023-04-04T22:11:43.014Z,25.15
2023-04-04T22:14:10.887Z,24.02
2023-04-04T22:16:43.963Z,27.98
2023-04-04T22:19:12.059Z,28.12
2023-04-04T22:21:47.213Z,42.67
2023-04-04T22:24:16.106Z,32.08
2023-04-04T22:26:46.343Z,32.35
2023-04-04T22:29:14.487Z,32.05
2023-04-04T22:31:42.389Z,30.37
2023-04-04T22:34:12.554Z,37.40
2023-04-04T22:36:44.162Z,30.48
2023-04-04T22:39:16.757Z,27.15
2023-04-04T22:41:44.690Z,34.47
2023-04-04T22:44:12.964Z,37.47
2023-04-04T22:46:40.869Z,35.78
2023-04-04T22:49:08.991Z,32.47
2023-04-04T22:51:46.235Z,29.17
2023-04-04T22:54:17.298Z,33.50
2023-04-04T22:56:45.847Z,32.08
2023-04-04T22:59:14.448Z,28.38
2023-04-04T23:01:42.660Z,34.22
2023-04-04T23:04:11.683Z,24.27
2023-04-04T23:06:39.812Z,25.58
2023-04-04T23:09:08.258Z,28.80
2023-04-04T23:11:49.240Z,36.45
2023-04-04T23:14:19.852Z,31.00
2023-04-04T23:16:48.054Z,35.10
2023-04-04T23:19:39.817Z,35.70
2023-04-04T23:22:08.491Z,32.72
2023-04-04T23:24:38.053Z,32.78
2023-04-04T23:27:05.951Z,36.28
2023-04-04T23:29:34.233Z,34.28
2023-04-04T23:32:02.080Z,31.60
2023-04-04T23:34:29.883Z,31.62
2023-04-04T23:36:58.104Z,31.75
2023-04-04T23:39:26.552Z,36.45
2023-04-04T23:41:54.934Z,33.72
2023-04-04T23:44:23.805Z,49.40
2023-04-04T23:46:52.613Z,48.08
2023-04-04T23:49:45.238Z,34.08
2023-04-04T23:52:25.233Z,35.75
2023-04-04T23:54:53.440Z,41.55
2023-04-04T23:57:21.472Z,37.40
